createdAt,value
2018-05-10T00:01:24.412Z,6.23
2018-05-10T00:03:52.595Z,6.97
2018-05-10T00:06:20.033Z,6.83
2018-05-10T00:08:47.469Z,7.37
2018-05-10T00:11:14.900Z,7.43
2018-05-10T00:13:42.324Z,6.70
2018-05-10T00:16:09.754Z,6.40
2018-05-10T00:18:37.187Z,6.10
2018-05-10T00:21:04.625Z,6.93
2018-05-10T00:23:32.051Z,6.53
2018-05-10T00:26:00.309Z,7.47
2018-05-10T00:28:28.525Z,6.03
2018-05-10T00:30:55.954Z,6.27
2018-05-10T00:33:24.156Z,6.47
2018-05-10T00:35:51.579Z,6.60
2018-05-10T00:38:19.792Z,6.60
2018-05-10T00:40:47.222Z,5.83
2018-05-10T00:43:15.420Z,6.20
2018-05-10T00:45:42.849Z,6.10
2018-05-10T00:48:11.052Z,7.90
2018-05-10T00:50:38.478Z,7.23
2018-05-10T00:53:06.670Z,6.37
2018-05-10T00:55:34.114Z,6.00
2018-05-10T00:58:02.314Z,6.20
2018-05-10T01:00:29.743Z,6.50
2018-05-10T01:02:57.958Z,6.60
2018-05-10T01:05:25.384Z,6.33
2018-05-10T01:07:52.814Z,6.93
2018-05-10T01:10:21.001Z,6.80
2018-05-10T01:12:49.202Z,7.20
2018-05-10T01:15:16.616Z,7.07
2018-05-10T01:17:44.826Z,6.90
2018-05-10T01:20:12.259Z,6.93
2018-05-10T01:22:40.459Z,6.57
2018-05-10T01:25:07.893Z,6.83
2018-05-10T01:27:36.087Z,6.90
2018-05-10T01:30:03.510Z,7.00
2018-05-10T01:32:30.943Z,6.37
2018-05-10T01:35:10.314Z,5.87
2018-05-10T01:37:38.526Z,6.77
2018-05-10T01:40:05.945Z,7.20
2018-05-10T01:42:34.142Z,6.20
2018-05-10T01:45:01.570Z,7.40
2018-05-10T01:47:29.771Z,7.20
2018-05-10T01:49:57.188Z,6.87
2018-05-10T01:52:24.619Z,7.10
2018-05-10T01:54:52.111Z,6.83
2018-05-10T01:57:19.547Z,8.20
2018-05-10T01:59:46.974Z,6.87
2018-05-10T02:02:14.413Z,6.93
2018-05-10T02:04:41.841Z,7.30
2018-05-10T02:07:09.276Z,7.10
2018-05-10T02:09:36.711Z,6.30
2018-05-10T02:12:04.141Z,6.97
2018-05-10T02:14:31.572Z,6.77
2018-05-10T02:16:59.789Z,6.80
2018-05-10T02:19:27.241Z,7.10
2018-05-10T02:21:54.675Z,7.03
2018-05-10T02:24:22.901Z,8.50
2018-05-10T02:26:50.336Z,8.00
2018-05-10T02:29:17.766Z,8.97
2018-05-10T02:31:45.974Z,8.03
2018-05-10T02:34:13.410Z,9.20
2018-05-10T02:36:40.846Z,8.00
2018-05-10T02:39:09.039Z,8.10
2018-05-10T02:41:36.458Z,9.00
2018-05-10T02:44:03.903Z,7.33
2018-05-10T02:46:31.342Z,7.00
2018-05-10T02:48:58.771Z,7.30
2018-05-10T02:51:26.197Z,8.63
2018-05-10T02:53:54.407Z,8.87
2018-05-10T02:56:22.224Z,8.10
2018-05-10T02:58:49.708Z,8.17
2018-05-10T03:01:17.896Z,8.03
2018-05-10T03:03:45.337Z,7.83
2018-05-10T03:06:13.539Z,8.13
2018-05-10T03:08:40.974Z,7.17
2018-05-10T03:11:09.158Z,6.73
2018-05-10T03:13:36.601Z,6.53
2018-05-10T03:16:04.791Z,7.00
2018-05-10T03:18:32.222Z,7.93
2018-05-10T03:21:00.415Z,9.57
2018-05-10T03:23:27.862Z,9.00
2018-05-10T03:25:56.068Z,9.70
2018-05-10T03:28:23.521Z,9.47
2018-05-10T03:30:50.953Z,9.60
2018-05-10T03:33:19.202Z,9.20
2018-05-10T03:35:46.595Z,9.40
2018-05-10T03:38:14.039Z,9.30
2018-05-10T03:40:42.250Z,8.80
2018-05-10T03:43:09.698Z,8.40
2018-05-10T03:45:37.115Z,8.40
2018-05-10T03:48:05.334Z,9.23
2018-05-10T03:50:32.767Z,9.10
2018-05-10T03:53:00.215Z,9.40
2018-05-10T03:55:28.420Z,9.53
2018-05-10T03:57:55.863Z,8.33
2018-05-10T04:00:23.300Z,10.77
2018-05-10T04:06:15.030Z,10.73
2018-05-10T04:08:54.249Z,9.93
2018-05-10T04:11:25.323Z,11.97
2018-05-10T04:13:53.527Z,11.00
2018-05-10T04:16:20.958Z,13.50
2018-05-10T04:18:50.994Z,12.30
2018-05-10T04:21:18.441Z,12.80
2018-05-10T04:23:46.670Z,13.60
2018-05-10T04:26:14.105Z,15.23
2018-05-10T04:28:41.549Z,13.90
2018-05-10T04:31:08.987Z,17.10
2018-05-10T04:33:36.431Z,17.57
2018-05-10T04:36:04.626Z,17.87
2018-05-10T04:38:32.070Z,15.60
2018-05-10T04:41:00.270Z,15.63
2018-05-10T04:43:27.748Z,16.30
2018-05-10T04:45:55.990Z,16.40
2018-05-10T04:48:23.523Z,18.30
2018-05-10T04:50:50.936Z,14.87
2018-05-10T04:53:18.376Z,16.23
2018-05-10T04:55:45.823Z,16.80
2018-05-10T04:58:13.253Z,16.27
2018-05-10T05:00:41.462Z,15.53
2018-05-10T05:03:08.886Z,15.50
2018-05-10T05:05:37.187Z,15.57
2018-05-10T05:08:04.623Z,16.77
2018-05-10T05:10:32.833Z,17.47
2018-05-10T05:13:00.275Z,16.87
2018-05-10T05:15:27.724Z,19.17
2018-05-10T05:17:55.159Z,20.87
2018-05-10T05:20:22.614Z,21.03
2018-05-10T05:22:50.820Z,21.47
2018-05-10T05:25:18.270Z,23.60
2018-05-10T05:27:45.702Z,26.97
2018-05-10T05:30:13.184Z,28.63
2018-05-10T05:32:40.632Z,27.53
2018-05-10T05:35:08.818Z,27.53
2018-05-10T05:37:36.253Z,29.20
2018-05-10T05:40:04.459Z,29.40
2018-05-10T05:42:31.897Z,32.33
2018-05-10T05:45:00.107Z,29.33
2018-05-10T05:47:27.553Z,30.50
2018-05-10T05:49:54.991Z,31.83
2018-05-10T05:52:22.444Z,33.43
2018-05-10T05:54:50.643Z,34.47
2018-05-10T05:57:18.082Z,33.10
2018-05-10T05:59:46.275Z,32.67
2018-05-10T06:02:13.719Z,31.67
2018-05-10T06:04:41.155Z,34.13
2018-05-10T06:07:09.358Z,33.67
2018-05-10T06:09:36.791Z,36.17
2018-05-10T06:12:04.982Z,33.97
2018-05-10T06:14:32.447Z,34.30
2018-05-10T06:16:59.873Z,34.80
2018-05-10T06:19:28.077Z,37.37
2018-05-10T06:21:55.506Z,40.03
2018-05-10T06:24:23.719Z,38.20
2018-05-10T06:26:51.145Z,39.20
2018-05-10T06:29:19.363Z,32.00
2018-05-10T06:31:46.789Z,33.70
2018-05-10T06:34:15.270Z,34.70
2018-05-10T06:36:42.708Z,35.03
2018-05-10T06:39:10.923Z,37.60
2018-05-10T06:41:38.368Z,38.60
2018-05-10T06:46:39.848Z,42.33
2018-05-10T06:49:07.291Z,43.00
2018-05-10T06:51:34.723Z,42.03
2018-05-10T06:54:02.938Z,41.20
2018-05-10T06:56:30.396Z,41.97
2018-05-10T06:58:57.836Z,42.33
2018-05-10T07:01:25.278Z,42.30
2018-05-10T07:03:53.486Z,41.17
2018-05-10T07:06:20.922Z,46.50
2018-05-10T07:08:48.375Z,46.03
2018-05-10T07:11:15.810Z,47.97
2018-05-10T07:13:44.028Z,47.33
2018-05-10T07:16:11.537Z,46.20
2018-05-10T07:18:38.979Z,47.77
2018-05-10T07:21:06.456Z,47.50
2018-05-10T07:23:33.861Z,46.50
2018-05-10T07:26:01.362Z,46.80
2018-05-10T07:28:28.802Z,47.47
2018-05-10T07:30:56.230Z,49.87
2018-05-10T07:33:23.666Z,50.07
2018-05-10T07:35:51.138Z,48.83
2018-05-10T07:38:18.662Z,51.33
2018-05-10T07:40:46.862Z,48.30
2018-05-10T07:43:14.323Z,45.77
2018-05-10T07:45:41.759Z,47.27
2018-05-10T07:48:09.967Z,46.77
2018-05-10T07:50:37.416Z,47.37
2018-05-10T07:53:04.921Z,49.13
2018-05-10T07:55:32.295Z,48.00
2018-05-10T07:58:00.524Z,46.30
2018-05-10T08:00:27.966Z,47.67
2018-05-10T08:02:55.491Z,45.87
2018-05-10T08:05:23.692Z,45.90
2018-05-10T08:07:51.134Z,43.90
2018-05-10T08:10:18.567Z,44.07
2018-05-10T08:12:46.006Z,43.20
2018-05-10T08:15:13.460Z,39.80
2018-05-10T08:20:03.905Z,38.70
2018-05-10T08:22:32.097Z,37.13
2018-05-10T08:24:59.533Z,37.97
2018-05-10T08:27:39.627Z,37.77
2018-05-10T08:30:07.069Z,38.03
2018-05-10T08:32:34.497Z,38.37
2018-05-10T08:35:02.783Z,35.07
2018-05-10T08:37:31.049Z,36.57
2018-05-10T08:39:59.249Z,36.00
2018-05-10T08:42:26.690Z,34.37
2018-05-10T08:44:54.967Z,37.60
2018-05-10T08:47:22.406Z,34.00
2018-05-10T08:49:49.859Z,34.40
2018-05-10T08:52:17.291Z,35.10
2018-05-10T08:54:44.735Z,32.47
2018-05-10T08:57:12.184Z,33.87
2018-05-10T08:59:39.623Z,35.40
2018-05-10T09:02:07.058Z,31.43
2018-05-10T09:04:35.272Z,32.43
2018-05-10T09:07:02.702Z,30.67
2018-05-10T09:09:30.970Z,30.93
2018-05-10T09:11:59.175Z,32.10
2018-05-10T09:14:26.617Z,29.77
2018-05-10T09:16:54.062Z,31.70
2018-05-10T09:19:22.269Z,31.40
2018-05-10T09:21:49.705Z,28.87
2018-05-10T09:24:18.443Z,28.87
2018-05-10T09:26:45.870Z,28.47
2018-05-10T09:29:13.314Z,29.47
2018-05-10T09:31:40.765Z,27.37
2018-05-10T09:34:08.193Z,26.90
2018-05-10T09:36:36.394Z,26.17
2018-05-10T09:39:03.855Z,23.47
2018-05-10T09:41:32.235Z,25.90
2018-05-10T09:43:59.771Z,25.37
2018-05-10T09:46:27.365Z,26.57
2018-05-10T09:48:54.813Z,26.10
2018-05-10T09:51:22.248Z,27.23
2018-05-10T09:53:50.455Z,26.57
2018-05-10T09:56:17.971Z,25.40
2018-05-10T09:58:45.457Z,25.93
2018-05-10T10:01:12.887Z,25.40
2018-05-10T10:03:40.343Z,25.47
2018-05-10T10:06:08.709Z,25.23
2018-05-10T10:08:36.931Z,27.70
2018-05-10T10:11:04.387Z,24.10
2018-05-10T10:13:32.565Z,26.50
2018-05-10T10:16:00.098Z,27.43
2018-05-10T10:18:28.291Z,22.23
2018-05-10T10:23:29.519Z,22.20
2018-05-10T10:25:56.946Z,24.10
2018-05-10T10:28:24.396Z,22.83
2018-05-10T10:30:51.904Z,22.37
2018-05-10T10:33:21.154Z,21.60
2018-05-10T10:35:48.590Z,18.50
2018-05-10T10:38:16.605Z,19.00
2018-05-10T10:40:44.007Z,18.50
2018-05-10T10:43:11.564Z,20.37
2018-05-10T10:45:39.126Z,20.60
2018-05-10T10:48:06.569Z,16.57
2018-05-10T10:50:34.780Z,17.60
2018-05-10T10:53:02.205Z,18.33
2018-05-10T10:55:30.856Z,18.97
2018-05-10T10:57:58.693Z,17.53
2018-05-10T11:00:26.126Z,18.80
2018-05-10T11:02:53.553Z,17.60
2018-05-10T11:05:21.773Z,17.50
2018-05-10T11:07:57.402Z,16.63
2018-05-10T11:10:25.857Z,16.30
2018-05-10T11:12:55.937Z,16.20
2018-05-10T11:15:23.912Z,18.17
2018-05-10T11:17:52.248Z,17.33
2018-05-10T11:20:19.690Z,18.50
2018-05-10T11:22:47.954Z,18.27
2018-05-10T11:25:15.429Z,16.00
2018-05-10T11:27:43.692Z,16.77
2018-05-10T11:30:11.155Z,17.97
2018-05-10T11:32:39.346Z,18.43
2018-05-10T11:35:07.139Z,18.47
2018-05-10T11:37:34.603Z,19.80
2018-05-10T11:40:02.288Z,20.10
2018-05-10T11:42:29.782Z,19.67
2018-05-10T11:44:57.991Z,19.93
2018-05-10T11:47:25.428Z,19.40
2018-05-10T11:49:52.872Z,19.37
2018-05-10T11:52:21.077Z,18.77
2018-05-10T11:54:48.519Z,18.67
2018-05-10T11:57:16.141Z,18.60
2018-05-10T11:59:43.560Z,18.47
2018-05-10T12:02:10.990Z,18.77
2018-05-10T12:04:38.435Z,18.47
2018-05-10T12:09:40.654Z,18.70
2018-05-10T12:12:08.174Z,18.40
2018-05-10T12:14:36.550Z,18.80
2018-05-10T12:17:04.929Z,17.50
2018-05-10T12:19:32.848Z,18.90
2018-05-10T12:22:00.815Z,18.97
2018-05-10T12:24:28.246Z,18.90
2018-05-10T12:26:55.674Z,18.40
2018-05-10T12:29:23.895Z,18.70
2018-05-10T12:31:51.331Z,17.20
2018-05-10T12:34:18.770Z,16.37
2018-05-10T12:36:46.981Z,17.87
2018-05-10T12:39:14.418Z,18.17
2018-05-10T12:41:41.915Z,17.70
2018-05-10T12:44:10.076Z,17.37
2018-05-10T12:46:37.518Z,16.53
2018-05-10T12:49:04.999Z,16.07
2018-05-10T12:51:32.454Z,17.00
2018-05-10T12:53:59.902Z,17.13
2018-05-10T12:56:28.422Z,16.33
2018-05-10T12:58:56.551Z,15.10
2018-05-10T13:01:23.987Z,16.47
2018-05-10T13:03:51.423Z,16.53
2018-05-10T13:06:19.639Z,15.40
2018-05-10T13:08:47.082Z,15.40
2018-05-10T13:11:14.522Z,15.13
2018-05-10T13:13:42.778Z,12.60
2018-05-10T13:16:10.288Z,11.60
2018-05-10T13:18:38.454Z,11.73
2018-05-10T13:21:05.977Z,11.60
2018-05-10T13:23:34.193Z,11.50
2018-05-10T13:26:01.623Z,11.40
2018-05-10T13:28:29.874Z,12.40
2018-05-10T13:30:57.311Z,17.10
2018-05-10T13:33:24.750Z,13.67
2018-05-10T13:35:52.226Z,15.80
2018-05-10T13:38:19.683Z,14.50
2018-05-10T13:40:47.110Z,16.67
2018-05-10T13:43:14.637Z,15.40
2018-05-10T13:45:42.914Z,14.50
2018-05-10T13:48:11.155Z,16.83
2018-05-10T13:50:38.651Z,15.60
2018-05-10T13:53:07.048Z,17.00
2018-05-10T13:55:35.195Z,19.33
2018-05-10T13:58:03.393Z,19.00
2018-05-10T14:00:30.833Z,20.80
2018-05-10T14:02:59.029Z,24.03
2018-05-10T14:05:26.462Z,20.53
2018-05-10T14:07:54.660Z,22.07
2018-05-10T14:10:22.107Z,21.30
2018-05-10T14:12:49.642Z,19.90
2018-05-10T14:15:17.160Z,19.00
2018-05-10T14:17:44.667Z,16.77
2018-05-10T14:20:12.871Z,14.57
2018-05-10T14:22:40.328Z,15.97
2018-05-10T14:25:07.797Z,13.93
2018-05-10T14:27:35.237Z,12.50
2018-05-10T14:30:02.695Z,12.60
2018-05-10T14:32:30.310Z,11.63
2018-05-10T14:34:57.776Z,13.17
2018-05-10T14:37:25.186Z,10.63
2018-05-10T14:39:52.638Z,8.33
2018-05-10T14:42:20.058Z,9.17
2018-05-10T14:44:48.262Z,6.90
2018-05-10T14:47:15.686Z,6.07
2018-05-10T14:49:43.907Z,10.90
2018-05-10T14:52:11.330Z,6.70
2018-05-10T14:54:39.538Z,6.37
2018-05-10T14:57:06.967Z,7.00
2018-05-10T14:59:34.503Z,6.10
2018-05-10T15:02:02.610Z,6.20
2018-05-10T15:04:30.077Z,6.00
2018-05-10T15:06:57.504Z,5.17
2018-05-10T15:09:25.715Z,5.90
2018-05-10T15:11:53.138Z,5.40
2018-05-10T15:14:21.334Z,5.47
2018-05-10T15:16:48.761Z,5.63
2018-05-10T15:19:16.957Z,5.90
2018-05-10T15:21:44.403Z,5.50
2018-05-10T15:24:12.659Z,4.70
2018-05-10T15:26:40.095Z,5.80
2018-05-10T15:29:07.538Z,6.40
2018-05-10T15:31:35.021Z,7.33
2018-05-10T15:34:02.408Z,6.33
2018-05-10T15:36:30.608Z,5.60
2018-05-10T15:38:58.072Z,5.20
2018-05-10T15:41:25.486Z,8.80
2018-05-10T15:43:53.682Z,7.10
2018-05-10T15:46:21.115Z,7.13
2018-05-10T15:48:49.332Z,7.60
2018-05-10T15:51:16.812Z,8.20
2018-05-10T15:53:44.251Z,7.70
2018-05-10T15:56:12.695Z,8.27
2018-05-10T15:58:40.956Z,9.20
2018-05-10T16:01:08.486Z,8.50
2018-05-10T16:03:35.927Z,10.23
2018-05-10T16:06:03.364Z,10.20
2018-05-10T16:08:30.785Z,9.27
2018-05-10T16:10:58.218Z,10.43
2018-05-10T16:13:25.665Z,10.03
2018-05-10T16:15:53.103Z,10.60
2018-05-10T16:18:20.607Z,9.03
2018-05-10T16:20:48.052Z,9.60
2018-05-10T16:23:15.495Z,10.27
2018-05-10T16:25:42.945Z,10.83
2018-05-10T16:28:10.512Z,9.50
2018-05-10T16:30:37.951Z,9.50
2018-05-10T16:33:05.393Z,8.97
2018-05-10T16:35:32.834Z,11.97
2018-05-10T16:38:01.032Z,10.03
2018-05-10T16:40:28.558Z,10.33
2018-05-10T16:42:56.762Z,11.47
2018-05-10T16:45:24.198Z,11.50
2018-05-10T16:47:52.419Z,11.13
2018-05-10T16:50:19.862Z,11.80
2018-05-10T16:52:47.317Z,10.87
2018-05-10T16:55:14.792Z,9.70
2018-05-10T16:57:43.220Z,11.03
2018-05-10T17:00:11.439Z,10.47
2018-05-10T17:02:38.875Z,10.67
2018-05-10T17:05:06.325Z,9.63
2018-05-10T17:07:33.759Z,10.67
2018-05-10T17:10:01.195Z,12.00
2018-05-10T17:12:28.635Z,10.83
2018-05-10T17:14:56.130Z,10.67
2018-05-10T17:17:23.579Z,8.30
2018-05-10T17:19:51.015Z,8.60
2018-05-10T17:22:18.449Z,8.43
2018-05-10T17:24:45.877Z,7.27
2018-05-10T17:27:13.335Z,8.00
2018-05-10T17:29:40.761Z,8.27
2018-05-10T17:32:08.203Z,8.20
2018-05-10T17:34:35.650Z,9.07
2018-05-10T17:37:03.085Z,8.77
2018-05-10T17:39:30.514Z,8.37
2018-05-10T17:41:57.967Z,8.37
2018-05-10T17:44:26.227Z,7.70
2018-05-10T17:46:53.658Z,8.20
2018-05-10T17:49:21.108Z,7.67
2018-05-10T17:51:48.550Z,7.20
2018-05-10T17:54:15.970Z,8.87
2018-05-10T17:56:44.263Z,7.83
2018-05-10T17:59:11.691Z,8.30
2018-05-10T18:01:39.140Z,10.80
2018-05-10T18:04:06.561Z,7.27
2018-05-10T18:06:35.356Z,7.90
2018-05-10T18:09:02.811Z,9.03
2018-05-10T18:11:30.254Z,9.30
2018-05-10T18:13:57.744Z,7.67
2018-05-10T18:16:26.308Z,7.40
2018-05-10T18:18:53.777Z,7.30
2018-05-10T18:21:21.209Z,7.80
2018-05-10T18:23:48.651Z,7.00
2018-05-10T18:26:16.212Z,7.70
2018-05-10T18:28:43.649Z,7.53
2018-05-10T18:31:11.856Z,7.77
2018-05-10T18:33:39.292Z,6.83
2018-05-10T18:36:07.376Z,9.03
2018-05-10T18:38:35.114Z,8.03
2018-05-10T18:41:03.551Z,8.27
2018-05-10T18:43:32.226Z,9.57
2018-05-10T18:45:59.826Z,8.03
2018-05-10T18:48:28.457Z,7.43
2018-05-10T18:50:56.123Z,8.53
2018-05-10T18:53:23.982Z,8.00
2018-05-10T18:55:57.322Z,6.40
2018-05-10T18:58:25.019Z,8.20
2018-05-10T19:00:54.515Z,7.33
2018-05-10T19:03:24.812Z,8.10
2018-05-10T19:05:52.725Z,7.67
2018-05-10T19:08:20.851Z,8.03
2018-05-10T19:10:48.651Z,6.70
2018-05-10T19:13:16.860Z,7.47
2018-05-10T19:15:44.298Z,6.93
2018-05-10T19:18:11.827Z,6.67
2018-05-10T19:20:40.106Z,7.00
2018-05-10T19:23:08.304Z,8.70
2018-05-10T19:25:35.885Z,8.03
2018-05-10T19:28:03.403Z,8.50
2018-05-10T19:30:31.746Z,7.80
2018-05-10T19:32:59.163Z,7.80
2018-05-10T19:35:26.699Z,8.60
2018-05-10T19:37:54.977Z,8.43
2018-05-10T19:40:23.242Z,7.67
2018-05-10T19:42:50.716Z,9.10
2018-05-10T19:45:19.068Z,8.13
2018-05-10T19:47:46.440Z,8.60
2018-05-10T19:50:14.651Z,7.57
2018-05-10T19:52:42.120Z,8.20
2018-05-10T19:55:09.629Z,8.00
2018-05-10T19:57:37.924Z,8.60
2018-05-10T20:00:06.115Z,8.00
2018-05-10T20:02:33.555Z,8.80
2018-05-10T20:05:00.997Z,9.80
2018-05-10T20:07:28.491Z,8.60
2018-05-10T20:09:55.919Z,9.77
2018-05-10T20:12:24.199Z,9.30
2018-05-10T20:14:51.649Z,9.17
2018-05-10T20:17:19.847Z,8.90
2018-05-10T20:19:47.275Z,8.60
2018-05-10T20:22:15.470Z,9.07
2018-05-10T20:24:42.914Z,10.70
2018-05-10T20:27:11.141Z,9.93
2018-05-10T20:29:38.635Z,9.40
2018-05-10T20:32:06.898Z,9.10
2018-05-10T20:34:34.287Z,8.80
2018-05-10T20:37:02.500Z,9.37
2018-05-10T20:39:30.016Z,9.87
2018-05-10T20:41:58.246Z,9.63
2018-05-10T20:44:25.681Z,9.43
2018-05-10T20:46:53.110Z,9.67
2018-05-10T20:49:21.300Z,9.53
2018-05-10T20:51:48.754Z,9.67
2018-05-10T20:54:16.191Z,10.60
2018-05-10T20:56:44.400Z,10.77
2018-05-10T20:59:11.830Z,11.03
2018-05-10T21:01:40.039Z,9.60
2018-05-10T21:04:07.479Z,9.80
2018-05-10T21:06:34.910Z,9.80
2018-05-10T21:09:03.130Z,10.50
2018-05-10T21:11:30.561Z,9.87
2018-05-10T21:13:57.991Z,10.17
2018-05-10T21:16:26.710Z,9.93
2018-05-10T21:18:54.078Z,10.63
2018-05-10T21:21:21.521Z,11.63
2018-05-10T21:23:48.951Z,9.93
2018-05-10T21:26:17.165Z,10.40
2018-05-10T21:28:44.595Z,11.13
2018-05-10T21:31:12.806Z,11.53
2018-05-10T21:33:40.244Z,11.63
2018-05-10T21:36:07.679Z,11.70
2018-05-10T21:38:35.885Z,11.17
2018-05-10T21:41:03.329Z,10.37
2018-05-10T21:43:30.764Z,11.33
2018-05-10T21:45:58.974Z,10.90
2018-05-10T21:48:26.415Z,11.77
2018-05-10T21:50:53.865Z,12.47
2018-05-10T21:53:21.423Z,10.50
2018-05-10T21:55:48.758Z,10.90
2018-05-10T21:58:18.999Z,10.83
2018-05-10T22:00:47.192Z,10.93
2018-05-10T22:03:14.646Z,11.10
2018-05-10T22:05:42.091Z,11.07
2018-05-10T22:08:10.290Z,10.70
2018-05-10T22:10:37.731Z,10.27
2018-05-10T22:13:05.170Z,9.23
2018-05-10T22:15:33.370Z,9.73
2018-05-10T22:18:00.811Z,9.50
2018-05-10T22:20:28.250Z,10.13
2018-05-10T22:22:56.460Z,11.10
2018-05-10T22:25:23.900Z,9.50
2018-05-10T22:27:51.338Z,10.80
2018-05-10T22:30:19.544Z,10.60
2018-05-10T22:32:46.987Z,11.10
2018-05-10T22:35:14.509Z,11.10
2018-05-10T22:37:42.732Z,9.90
2018-05-10T22:40:10.161Z,11.97
2018-05-10T22:42:38.376Z,12.97
2018-05-10T22:45:05.819Z,11.47
2018-05-10T22:47:33.263Z,12.70
2018-05-10T22:50:01.466Z,12.00
2018-05-10T22:52:28.917Z,12.97
2018-05-10T22:54:56.345Z,13.23
2018-05-10T22:57:24.564Z,13.53
2018-05-10T22:59:52.016Z,12.00
2018-05-10T23:02:19.432Z,11.83
2018-05-10T23:04:47.632Z,11.90
2018-05-10T23:07:15.075Z,12.77
2018-05-10T23:09:42.550Z,13.17
2018-05-10T23:12:09.954Z,11.83
2018-05-10T23:14:37.370Z,13.53
2018-05-10T23:17:04.826Z,12.80
2018-05-10T23:19:32.268Z,13.07
2018-05-10T23:21:59.715Z,13.40
2018-05-10T23:24:27.151Z,13.97
2018-05-10T23:26:55.359Z,12.20
2018-05-10T23:29:22.789Z,15.17
2018-05-10T23:31:51.008Z,12.33
2018-05-10T23:34:18.430Z,12.80
2018-05-10T23:36:46.647Z,13.37
2018-05-10T23:39:14.081Z,13.70
2018-05-10T23:41:41.523Z,12.50
2018-05-10T23:44:08.961Z,13.17
2018-05-10T23:46:36.398Z,12.47
2018-05-10T23:49:03.825Z,13.07
2018-05-10T23:51:31.265Z,14.30
2018-05-10T23:53:58.707Z,12.93
2018-05-10T23:56:26.404Z,13.90
2018-05-10T23:58:53.833Z,13.90
